Time;durP1;ratioP1;P1;durP2;ratioP2;P2;SDS_P1;SDS_P2;PMS_P1;PMS_P2;Temp;Humidity;BMP_temperature;BMP_pressure;BME280_temperature;BME280_humidity;BME280_pressure;Samples;Min_cycle;Max_cycle;Signal;HPM_P1;HPM_P2
2024/01/22 00:01:43;;;;;;;;;;;7.10;99.90;;;;;;4953575;28;20007;-72
2024/01/22 00:04:10;;;;;;;;;;;7.00;99.90;;;;;;4945803;28;19930;-72
2024/01/22 00:06:36;;;;;;;;;;;7.10;99.90;;;;;;4940617;28;19936;-74
2024/01/22 00:09:02;;;;;;;;;;;7.10;99.90;;;;;;4959420;28;19925;-73
2024/01/22 00:11:29;;;;;;;;;;;7.10;99.90;;;;;;4922261;28;20492;-73
2024/01/22 00:13:55;;;;;;;;;;;7.10;99.90;;;;;;4947576;28;19929;-72
2024/01/22 00:16:21;;;;;;;;;;;7.10;99.90;;;;;;4894072;28;19926;-72
2024/01/22 00:18:48;;;;;;;;;;;7.10;99.90;;;;;;4937972;28;19933;-73
2024/01/22 00:21:14;;;;;;;;;;;7.10;99.90;;;;;;4893970;28;20012;-75
2024/01/22 00:23:40;;;;;;;;;;;7.10;99.90;;;;;;4938917;28;19925;-73
2024/01/22 00:26:06;;;;;;;;;;;7.10;99.90;;;;;;4924655;28;19929;-74
2024/01/22 00:28:32;;;;;;;;;;;7.10;99.90;;;;;;4954196;28;20633;-74
2024/01/22 00:30:58;;;;;;;;;;;7.10;99.90;;;;;;4912332;28;20478;-73
2024/01/22 00:33:23;;;;;;;;;;;7.10;99.90;;;;;;4937167;28;19932;-73
2024/01/22 00:35:49;;;;;;;;;;;7.20;99.90;;;;;;4923792;28;19933;-72
2024/01/22 00:38:15;;;;;;;;;;;7.20;99.90;;;;;;4944590;28;20102;-73
2024/01/22 00:40:41;;;;;;;;;;;7.20;99.90;;;;;;4908278;28;19933;-72
2024/01/22 00:43:07;;;;;;;;;;;7.20;99.90;;;;;;4934353;28;20456;-72
2024/01/22 00:45:33;;;;;;;;;;;7.30;99.90;;;;;;4912035;28;19925;-72
2024/01/22 00:47:59;;;;;;;;;;;7.30;99.90;;;;;;4947657;28;19926;-72
2024/01/22 00:50:25;;;;;;;;;;;7.40;99.90;;;;;;4918272;28;19925;-73
2024/01/22 00:52:51;;;;;;;;;;;7.50;99.90;;;;;;4957651;28;20098;-71
2024/01/22 00:55:17;;;;;;;;;;;7.50;99.90;;;;;;4915815;28;19933;-71
2024/01/22 00:57:43;;;;;;;;;;;7.60;99.90;;;;;;4962242;28;19940;-73
2024/01/22 01:00:09;;;;;;;;;;;7.60;99.90;;;;;;4913733;28;19930;-73
2024/01/22 01:02:35;;;;;;;;;;;7.50;99.90;;;;;;4958218;28;19930;-72
2024/01/22 01:05:01;;;;;;;;;;;7.60;99.90;;;;;;4932007;28;19990;-72
2024/01/22 01:07:27;;;;;;;;;;;7.60;99.90;;;;;;4960255;28;19933;-72
2024/01/22 01:09:53;;;;;;;;;;;7.60;99.90;;;;;;4940150;28;19926;-72
2024/01/22 01:12:19;;;;;;;;;;;7.70;99.90;;;;;;4948872;28;20502;-71
2024/01/22 01:14:45;;;;;;;;;;;7.70;99.90;;;;;;4966427;28;19925;-71
2024/01/22 01:17:11;;;;;;;;;;;7.80;99.90;;;;;;4934219;28;20859;-72
2024/01/22 01:19:39;;;;;;;;;;;7.80;99.90;;;;;;4962045;28;20042;-72
2024/01/22 01:22:05;;;;;;;;;;;7.80;99.90;;;;;;4914667;28;20372;-72
2024/01/22 01:24:31;;;;;;;;;;;7.80;99.90;;;;;;4945514;28;19929;-72
2024/01/22 01:26:57;;;;;;;;;;;7.90;99.90;;;;;;4919412;28;20132;-73
2024/01/22 01:29:23;;;;;;;;;;;7.90;99.90;;;;;;4945243;28;19933;-73
2024/01/22 01:31:49;;;;;;;;;;;7.90;99.90;;;;;;4935863;28;19936;-73
2024/01/22 01:34:14;;;;;;;;;;;7.90;99.90;;;;;;4947623;28;19925;-73
2024/01/22 01:36:40;;;;;;;;;;;8.00;99.90;;;;;;4923194;28;20843;-74
2024/01/22 01:39:07;;;;;;;;;;;8.00;99.90;;;;;;4929314;28;19940;-74
2024/01/22 01:41:33;;;;;;;;;;;7.90;99.90;;;;;;4940160;28;19979;-74
2024/01/22 01:43:59;;;;;;;;;;;8.00;99.90;;;;;;4961591;28;20223;-75
2024/01/22 01:46:25;;;;;;;;;;;8.00;99.90;;;;;;4945827;28;19925;-73
2024/01/22 01:48:51;;;;;;;;;;;8.00;99.90;;;;;;4963169;28;20037;-77
2024/01/22 01:51:16;;;;;;;;;;;8.00;99.90;;;;;;4936807;28;19929;-76
2024/01/22 01:53:44;;;;;;;;;;;7.90;99.90;;;;;;4967702;28;19936;-77
2024/01/22 01:56:10;;;;;;;;;;;7.90;99.90;;;;;;4924164;28;19925;-76
2024/01/22 01:58:36;;;;;;;;;;;8.00;99.90;;;;;;4968326;28;19933;-76
2024/01/22 02:01:03;;;;;;;;;;;7.90;99.90;;;;;;4933823;28;19925;-76
2024/01/22 02:03:29;;;;;;;;;;;7.90;99.90;;;;;;4951493;28;21045;-76
2024/01/22 02:05:55;;;;;;;;;;;8.00;99.90;;;;;;4914716;28;19930;-75
2024/01/22 02:08:21;;;;;;;;;;;8.00;99.90;;;;;;4945913;28;19925;-76
2024/01/22 02:10:50;;;;;;;;;;;8.00;99.90;;;;;;4922792;28;21094;-75
2024/01/22 02:13:16;;;;;;;;;;;8.00;99.90;;;;;;4959067;28;19930;-74
2024/01/22 02:15:42;;;;;;;;;;;7.90;99.90;;;;;;4926506;28;19933;-74
2024/01/22 02:18:08;;;;;;;;;;;8.10;99.90;;;;;;4936805;28;19938;-74
2024/01/22 02:20:34;;;;;;;;;;;8.00;99.90;;;;;;4918447;28;19929;-74
2024/01/22 02:23:03;;;;;;;;;;;8.00;99.90;;;;;;4964804;28;19932;-74
2024/01/22 02:25:29;;;;;;;;;;;8.10;99.90;;;;;;4935534;28;20037;-74
2024/01/22 02:27:55;;;;;;;;;;;8.10;99.90;;;;;;4964008;28;20806;-75
2024/01/22 02:30:21;;;;;;;;;;;8.10;99.90;;;;;;4899711;28;20546;-74
2024/01/22 02:32:47;;;;;;;;;;;8.20;99.90;;;;;;4947101;28;21120;-74
2024/01/22 02:35:13;;;;;;;;;;;8.20;99.90;;;;;;4913458;28;19936;-75
2024/01/22 02:37:39;;;;;;;;;;;8.20;99.90;;;;;;4948874;28;21211;-74
2024/01/22 02:40:05;;;;;;;;;;;8.20;99.90;;;;;;4898594;28;19929;-74
2024/01/22 02:42:31;;;;;;;;;;;8.20;99.90;;;;;;4946428;28;19937;-75
2024/01/22 02:44:58;;;;;;;;;;;8.20;99.90;;;;;;4936688;28;19925;-75
2024/01/22 02:47:24;;;;;;;;;;;8.20;99.90;;;;;;4891233;28;20328;-73
2024/01/22 02:49:50;;;;;;;;;;;8.20;99.90;;;;;;4947711;28;19926;-75
2024/01/22 02:52:17;;;;;;;;;;;8.30;99.90;;;;;;4912478;28;19936;-76
2024/01/22 02:54:43;;;;;;;;;;;8.30;99.90;;;;;;4927976;28;19926;-74
2024/01/22 02:57:10;;;;;;;;;;;8.40;99.90;;;;;;4920206;28;20007;-75
2024/01/22 02:59:37;;;;;;;;;;;8.40;99.90;;;;;;4944484;28;19929;-75
2024/01/22 03:02:03;;;;;;;;;;;8.50;99.90;;;;;;4933272;28;19925;-76
2024/01/22 03:04:29;;;;;;;;;;;8.50;99.90;;;;;;4946399;28;19937;-75
2024/01/22 03:06:55;;;;;;;;;;;8.50;99.90;;;;;;4952581;28;19925;-75
2024/01/22 03:09:22;;;;;;;;;;;8.50;99.90;;;;;;4965720;28;19936;-75
2024/01/22 03:11:48;;;;;;;;;;;8.50;99.90;;;;;;4940751;28;20275;-74
2024/01/22 03:14:14;;;;;;;;;;;8.50;99.90;;;;;;4946640;28;20370;-75
2024/01/22 03:16:40;;;;;;;;;;;8.50;99.90;;;;;;4897698;28;19925;-75
2024/01/22 03:19:06;;;;;;;;;;;8.50;99.90;;;;;;4950819;28;20003;-75
2024/01/22 03:21:31;;;;;;;;;;;8.60;99.90;;;;;;4961977;28;19933;-76
2024/01/22 03:23:57;;;;;;;;;;;8.50;99.90;;;;;;4976344;28;19917;-74
2024/01/22 03:26:24;;;;;;;;;;;8.50;99.90;;;;;;4949765;28;20347;-75
2024/01/22 03:28:50;;;;;;;;;;;8.40;99.90;;;;;;4977951;28;19932;-75
2024/01/22 03:31:25;;;;;;;;;;;8.40;99.90;;;;;;4944842;28;19925;-76
2024/01/22 03:33:52;;;;;;;;;;;8.40;99.90;;;;;;4952092;28;19933;-75
2024/01/22 03:36:18;;;;;;;;;;;8.50;99.90;;;;;;4912584;28;19929;-75
2024/01/22 03:38:44;;;;;;;;;;;8.50;99.90;;;;;;4962214;28;19929;-76
2024/01/22 03:41:10;;;;;;;;;;;8.50;99.90;;;;;;4944165;28;19932;-75
2024/01/22 03:43:36;;;;;;;;;;;8.40;99.90;;;;;;4970136;28;19925;-75
2024/01/22 03:46:02;;;;;;;;;;;8.50;99.90;;;;;;4937358;28;19925;-77
2024/01/22 03:48:28;;;;;;;;;;;8.50;99.90;;;;;;4956958;28;21086;-75
2024/01/22 03:50:54;;;;;;;;;;;8.50;99.90;;;;;;4940818;28;19924;-75
2024/01/22 03:53:20;;;;;;;;;;;8.50;99.90;;;;;;4975081;28;19944;-76
2024/01/22 03:55:46;;;;;;;;;;;8.50;99.90;;;;;;4939468;28;20946;-76
2024/01/22 03:58:12;;;;;;;;;;;8.50;99.90;;;;;;4967357;28;19930;-76
2024/01/22 04:00:38;;;;;;;;;;;8.50;99.90;;;;;;4929870;28;20566;-76
2024/01/22 04:03:04;;;;;;;;;;;8.60;99.90;;;;;;4950647;28;19925;-75
2024/01/22 04:05:31;;;;;;;;;;;8.50;99.90;;;;;;4939318;28;19935;-74
2024/01/22 04:07:57;;;;;;;;;;;8.50;99.90;;;;;;4949753;28;19925;-75
2024/01/22 04:10:23;;;;;;;;;;;8.60;99.90;;;;;;4917513;28;19932;-75
2024/01/22 04:12:49;;;;;;;;;;;8.60;99.90;;;;;;4957029;28;20915;-75
2024/01/22 04:15:15;;;;;;;;;;;8.70;99.90;;;;;;4937211;28;19942;-76
2024/01/22 04:17:42;;;;;;;;;;;8.60;99.90;;;;;;4972833;28;20655;-75
2024/01/22 04:20:08;;;;;;;;;;;8.70;99.90;;;;;;4932751;28;19936;-76
2024/01/22 04:22:34;;;;;;;;;;;8.70;99.90;;;;;;4966891;28;19930;-75
2024/01/22 04:25:00;;;;;;;;;;;8.70;99.90;;;;;;4946096;28;19926;-75
2024/01/22 04:27:26;;;;;;;;;;;8.70;99.90;;;;;;4953888;28;20562;-76
2024/01/22 04:29:51;;;;;;;;;;;8.70;99.90;;;;;;4946948;28;20251;-78
2024/01/22 04:32:17;;;;;;;;;;;8.80;99.90;;;;;;4937778;28;19963;-73
2024/01/22 04:34:43;;;;;;;;;;;8.70;99.90;;;;;;4925958;28;20269;-75
2024/01/22 04:37:09;;;;;;;;;;;8.70;99.90;;;;;;4950364;28;20541;-76
2024/01/22 04:39:36;;;;;;;;;;;8.80;99.90;;;;;;4958131;28;20063;-74
2024/01/22 04:42:02;;;;;;;;;;;8.80;99.90;;;;;;4980354;28;20009;-77
2024/01/22 04:44:28;;;;;;;;;;;8.90;99.90;;;;;;4950788;28;20065;-78
2024/01/22 04:46:55;;;;;;;;;;;8.80;99.90;;;;;;4955996;28;19932;-76
2024/01/22 04:49:21;;;;;;;;;;;8.90;99.90;;;;;;4970884;28;20453;-77
2024/01/22 04:51:47;;;;;;;;;;;8.90;99.90;;;;;;4932887;28;20404;-76
2024/01/22 04:54:13;;;;;;;;;;;8.90;99.90;;;;;;4936073;28;19930;-77
2024/01/22 04:56:43;;;;;;;;;;;9.00;99.90;;;;;;4909346;28;20081;-77
2024/01/22 04:59:09;;;;;;;;;;;9.00;99.90;;;;;;4951683;28;19930;-78
2024/01/22 05:01:35;;;;;;;;;;;9.00;99.90;;;;;;4958389;28;20388;-77
2024/01/22 05:04:02;;;;;;;;;;;9.10;99.90;;;;;;4967899;28;20643;-76
2024/01/22 05:06:28;;;;;;;;;;;9.10;99.90;;;;;;4944760;28;19930;-77
2024/01/22 05:08:54;;;;;;;;;;;9.10;99.90;;;;;;4985499;28;19926;-77
2024/01/22 05:11:20;;;;;;;;;;;9.20;99.90;;;;;;4943572;28;19929;-77
2024/01/22 05:13:53;;;;;;;;;;;9.30;99.90;;;;;;4970555;28;19926;-76
2024/01/22 05:16:19;;;;;;;;;;;9.30;99.90;;;;;;4916530;28;19930;-76
2024/01/22 05:18:46;;;;;;;;;;;9.40;99.90;;;;;;4947068;28;19937;-75
2024/01/22 05:21:12;;;;;;;;;;;9.40;99.90;;;;;;4932506;28;19925;-76
2024/01/22 05:23:39;;;;;;;;;;;9.50;99.90;;;;;;4951983;28;19940;-76
2024/01/22 05:26:05;;;;;;;;;;;9.60;99.90;;;;;;4933653;28;19926;-76
2024/01/22 05:28:32;;;;;;;;;;;9.70;99.90;;;;;;4936305;28;19936;-79
2024/01/22 05:30:58;;;;;;;;;;;9.70;99.90;;;;;;4920826;28;19929;-76
2024/01/22 05:33:24;;;;;;;;;;;9.70;99.90;;;;;;4944469;28;19929;-77
2024/01/22 05:35:50;;;;;;;;;;;9.80;99.90;;;;;;4903975;28;19930;-77
2024/01/22 05:38:16;;;;;;;;;;;9.90;99.90;;;;;;4955735;28;20650;-77
2024/01/22 05:40:42;;;;;;;;;;;9.90;99.90;;;;;;4927695;28;20451;-75
2024/01/22 05:43:08;;;;;;;;;;;10.00;99.90;;;;;;4978928;28;19925;-76
2024/01/22 05:45:34;;;;;;;;;;;10.00;99.90;;;;;;4935298;28;19936;-76
2024/01/22 05:48:00;;;;;;;;;;;10.10;99.90;;;;;;4952159;28;19929;-77
2024/01/22 05:50:26;;;;;;;;;;;10.10;99.90;;;;;;4931895;28;19926;-76
2024/01/22 05:52:53;;;;;;;;;;;10.10;99.90;;;;;;4965707;28;19932;-76
2024/01/22 05:55:19;;;;;;;;;;;10.20;99.90;;;;;;4935724;28;19946;-75
2024/01/22 05:57:44;;;;;;;;;;;10.20;99.90;;;;;;4968358;28;19945;-74
2024/01/22 06:00:13;;;;;;;;;;;10.20;99.90;;;;;;4937366;28;20357;-75
2024/01/22 06:02:42;;;;;;;;;;;10.30;99.90;;;;;;4982748;28;19936;-75
2024/01/22 06:05:09;;;;;;;;;;;10.40;99.90;;;;;;4931871;28;19960;-74
2024/01/22 06:07:38;;;;;;;;;;;10.50;99.90;;;;;;4934636;28;19932;-75
2024/01/22 06:10:05;;;;;;;;;;;10.50;99.90;;;;;;4948480;28;19926;-73
2024/01/22 06:12:31;;;;;;;;;;;10.50;99.90;;;;;;4949075;28;19929;-74
2024/01/22 06:14:57;;;;;;;;;;;10.50;99.90;;;;;;4954261;28;19925;-78
2024/01/22 06:17:23;;;;;;;;;;;10.60;99.90;;;;;;4938297;28;19926;-76
2024/01/22 06:19:49;;;;;;;;;;;10.60;99.90;;;;;;4959544;28;19941;-77
2024/01/22 06:22:17;;;;;;;;;;;10.50;99.90;;;;;;4956380;28;19991;-76
2024/01/22 06:24:44;;;;;;;;;;;10.50;99.90;;;;;;4944051;28;19930;-77
2024/01/22 06:27:10;;;;;;;;;;;10.60;99.90;;;;;;4934657;28;19933;-76
2024/01/22 06:29:36;;;;;;;;;;;10.60;99.90;;;;;;4963443;28;21217;-76
2024/01/22 06:32:02;;;;;;;;;;;10.70;99.90;;;;;;4918480;28;20062;-77
2024/01/22 06:34:28;;;;;;;;;;;10.60;99.90;;;;;;4970479;28;20141;-76
2024/01/22 06:36:54;;;;;;;;;;;10.60;99.90;;;;;;4905155;28;19926;-77
2024/01/22 06:39:20;;;;;;;;;;;10.70;99.90;;;;;;4960262;28;19930;-77
2024/01/22 06:41:46;;;;;;;;;;;10.60;99.90;;;;;;4931622;28;19929;-76
2024/01/22 06:44:11;;;;;;;;;;;10.50;99.90;;;;;;4973215;28;19926;-76
2024/01/22 06:46:37;;;;;;;;;;;10.50;99.90;;;;;;4958235;28;20025;-74
2024/01/22 06:49:04;;;;;;;;;;;10.40;99.90;;;;;;4942202;28;19937;-76
2024/01/22 06:51:30;;;;;;;;;;;10.40;99.90;;;;;;4951218;28;20630;-77
2024/01/22 06:53:56;;;;;;;;;;;10.50;99.90;;;;;;4986622;28;19932;-76
2024/01/22 06:56:22;;;;;;;;;;;10.50;99.90;;;;;;4946828;28;19925;-77
2024/01/22 06:58:48;;;;;;;;;;;10.50;99.90;;;;;;4935256;28;19941;-75
2024/01/22 07:01:14;;;;;;;;;;;10.50;99.90;;;;;;4935293;28;19924;-76
2024/01/22 07:03:40;;;;;;;;;;;10.40;99.90;;;;;;4952959;28;20374;-75
2024/01/22 07:06:06;;;;;;;;;;;10.40;99.90;;;;;;4930131;28;19932;-75
2024/01/22 07:08:32;;;;;;;;;;;10.50;99.90;;;;;;4968089;28;19926;-75
2024/01/22 07:10:58;;;;;;;;;;;10.40;99.90;;;;;;4927401;28;19952;-74
2024/01/22 07:13:24;;;;;;;;;;;10.40;99.90;;;;;;4947818;28;19936;-75
2024/01/22 07:15:50;;;;;;;;;;;10.40;99.90;;;;;;4937583;28;19930;-76
2024/01/22 07:18:17;;;;;;;;;;;10.40;99.90;;;;;;4981543;28;19940;-76
2024/01/22 07:20:43;;;;;;;;;;;10.40;99.90;;;;;;4936704;28;20451;-76
2024/01/22 07:23:09;;;;;;;;;;;10.40;99.90;;;;;;4954186;28;19925;-76
2024/01/22 07:25:36;;;;;;;;;;;10.30;99.90;;;;;;4931019;28;20017;-76
2024/01/22 07:28:03;;;;;;;;;;;10.30;99.90;;;;;;4953013;28;19933;-77
2024/01/22 07:30:29;;;;;;;;;;;10.30;99.90;;;;;;4931844;28;19925;-75
2024/01/22 07:32:55;;;;;;;;;;;10.30;99.90;;;;;;4983954;28;19934;-76
2024/01/22 07:35:21;;;;;;;;;;;10.30;99.90;;;;;;4944280;28;20248;-76
2024/01/22 07:37:47;;;;;;;;;;;10.30;99.90;;;;;;4954668;28;20476;-75
2024/01/22 07:40:13;;;;;;;;;;;10.20;99.90;;;;;;4931677;28;19929;-76
2024/01/22 07:42:41;;;;;;;;;;;10.30;99.90;;;;;;4956464;28;19957;-75
2024/01/22 07:45:08;;;;;;;;;;;10.20;99.90;;;;;;4924257;28;20653;-74
2024/01/22 07:47:34;;;;;;;;;;;10.20;99.90;;;;;;4956161;28;20944;-74
2024/01/22 07:50:00;;;;;;;;;;;10.20;99.90;;;;;;4933166;28;19932;-74
2024/01/22 07:52:26;;;;;;;;;;;10.10;99.90;;;;;;4970882;28;19933;-74
2024/01/22 07:54:52;;;;;;;;;;;10.10;99.90;;;;;;4955880;28;19929;-75
2024/01/22 07:57:18;;;;;;;;;;;10.20;99.90;;;;;;4949387;28;19926;-75
2024/01/22 07:59:44;;;;;;;;;;;10.10;99.90;;;;;;4962917;28;19930;-76
2024/01/22 08:02:10;;;;;;;;;;;10.10;99.90;;;;;;4960663;28;19910;-75
2024/01/22 08:04:36;;;;;;;;;;;10.10;99.90;;;;;;4978018;28;19929;-75
2024/01/22 08:07:03;;;;;;;;;;;10.00;99.90;;;;;;4949273;28;19940;-76
2024/01/22 08:09:29;;;;;;;;;;;10.00;99.90;;;;;;4955299;28;19937;-76
2024/01/22 08:11:55;;;;;;;;;;;10.00;99.90;;;;;;4943083;28;20892;-76
2024/01/22 08:14:22;;;;;;;;;;;10.00;99.90;;;;;;4960334;28;19925;-74
2024/01/22 08:16:51;;;;;;;;;;;10.10;99.90;;;;;;4919454;28;20017;-74
2024/01/22 08:19:17;;;;;;;;;;;10.10;99.90;;;;;;4933346;28;20547;-75
2024/01/22 08:21:43;;;;;;;;;;;10.00;99.90;;;;;;4946521;28;19991;-75
2024/01/22 08:24:09;;;;;;;;;;;10.00;99.90;;;;;;4968954;28;19933;-73
2024/01/22 08:26:35;;;;;;;;;;;10.00;99.90;;;;;;4911465;28;19925;-73
2024/01/22 08:29:01;;;;;;;;;;;10.00;99.90;;;;;;4970652;28;19933;-74
2024/01/22 08:31:27;;;;;;;;;;;10.00;99.90;;;;;;4952228;28;20038;-73
2024/01/22 08:33:54;;;;;;;;;;;10.10;99.90;;;;;;4967542;28;19925;-74
2024/01/22 08:36:20;;;;;;;;;;;10.00;99.90;;;;;;4951507;28;20286;-75
2024/01/22 08:38:47;;;;;;;;;;;10.00;99.90;;;;;;4977465;28;19929;-75
2024/01/22 08:41:13;;;;;;;;;;;10.00;99.90;;;;;;4938155;28;19925;-77
2024/01/22 08:43:39;;;;;;;;;;;10.00;99.90;;;;;;4952493;28;19936;-76
2024/01/22 08:46:05;;;;;;;;;;;9.90;99.90;;;;;;4957820;28;20491;-78
2024/01/22 08:48:30;;;;;;;;;;;9.80;99.90;;;;;;4962485;28;19925;-78
2024/01/22 08:50:57;;;;;;;;;;;9.80;99.90;;;;;;4945223;28;19959;-76
2024/01/22 08:53:23;;;;;;;;;;;9.70;99.90;;;;;;4976207;28;19932;-76
2024/01/22 08:55:49;;;;;;;;;;;9.60;99.90;;;;;;4942666;28;19984;-76
2024/01/22 08:58:15;;;;;;;;;;;9.60;99.90;;;;;;4967805;28;19925;-76
2024/01/22 09:00:41;;;;;;;;;;;9.60;99.90;;;;;;4951915;28;19925;-76
2024/01/22 09:03:07;;;;;;;;;;;9.50;99.90;;;;;;4959175;28;19929;-75
2024/01/22 09:05:34;;;;;;;;;;;9.50;99.90;;;;;;4960808;28;19932;-75
2024/01/22 09:08:00;;;;;;;;;;;9.50;99.90;;;;;;4984770;28;21007;-74
2024/01/22 09:10:26;;;;;;;;;;;9.40;99.90;;;;;;4954299;28;19926;-74
2024/01/22 09:12:52;;;;;;;;;;;9.40;99.90;;;;;;4938956;28;20447;-75
2024/01/22 09:15:20;;;;;;;;;;;9.40;99.90;;;;;;4942585;28;19941;-73
2024/01/22 09:17:46;;;;;;;;;;;9.40;99.90;;;;;;4975090;28;19929;-74
2024/01/22 09:20:12;;;;;;;;;;;9.40;99.90;;;;;;4938847;28;19929;-76
2024/01/22 09:22:38;;;;;;;;;;;9.40;99.90;;;;;;4974355;28;20448;-72
2024/01/22 09:25:05;;;;;;;;;;;9.30;99.90;;;;;;4942319;28;20454;-75
2024/01/22 09:27:31;;;;;;;;;;;9.30;99.90;;;;;;4978204;28;20464;-74
2024/01/22 09:29:58;;;;;;;;;;;9.30;99.90;;;;;;4942749;28;19929;-75
2024/01/22 09:32:25;;;;;;;;;;;9.40;99.90;;;;;;4943106;28;19936;-75
2024/01/22 09:34:51;;;;;;;;;;;9.40;99.90;;;;;;4973854;28;19929;-73
2024/01/22 09:37:17;;;;;;;;;;;9.40;99.90;;;;;;4966245;28;20436;-74
2024/01/22 09:39:44;;;;;;;;;;;9.50;99.90;;;;;;4973863;28;19942;-74
2024/01/22 09:42:16;;;;;;;;;;;9.40;99.90;;;;;;4935261;28;19932;-73
2024/01/22 09:44:46;;;;;;;;;;;9.30;99.90;;;;;;4967491;28;19926;-74
2024/01/22 09:47:12;;;;;;;;;;;9.30;99.90;;;;;;4945787;28;19926;-73
2024/01/22 09:49:38;;;;;;;;;;;9.30;99.90;;;;;;4968866;28;19936;-73
2024/01/22 09:52:05;;;;;;;;;;;9.30;99.90;;;;;;4946208;28;19930;-73
2024/01/22 09:54:31;;;;;;;;;;;9.20;99.90;;;;;;4972518;28;19929;-73
2024/01/22 09:56:58;;;;;;;;;;;9.20;99.90;;;;;;4958980;28;20497;-72
2024/01/22 09:59:24;;;;;;;;;;;9.20;99.90;;;;;;4969013;28;19929;-71
2024/01/22 10:01:51;;;;;;;;;;;9.20;99.90;;;;;;4930015;28;20463;-72
2024/01/22 10:04:17;;;;;;;;;;;9.20;99.90;;;;;;4969077;28;19952;-72
2024/01/22 10:06:44;;;;;;;;;;;9.10;99.90;;;;;;4959838;28;19925;-72
2024/01/22 10:09:15;;;;;;;;;;;9.10;99.90;;;;;;4975924;28;20434;-72
2024/01/22 10:11:44;;;;;;;;;;;9.10;99.90;;;;;;4944717;28;19924;-71
2024/01/22 10:14:10;;;;;;;;;;;9.10;99.90;;;;;;4974477;28;19926;-74
2024/01/22 10:16:36;;;;;;;;;;;9.10;99.90;;;;;;4930979;28;20708;-73
2024/01/22 10:19:07;;;;;;;;;;;9.10;99.90;;;;;;4973356;28;19929;-72
2024/01/22 10:21:36;;;;;;;;;;;9.00;99.90;;;;;;4953726;28;19925;-73
2024/01/22 10:24:06;;;;;;;;;;;9.00;99.90;;;;;;4973278;28;19926;-72
2024/01/22 10:26:33;;;;;;;;;;;8.90;99.90;;;;;;4951427;28;20002;-72
2024/01/22 10:29:19;;;;;;;;;;;8.90;99.90;;;;;;4966689;28;19964;-71
2024/01/22 10:31:52;;;;;;;;;;;8.90;99.90;;;;;;4957164;28;19941;-72
2024/01/22 10:34:18;;;;;;;;;;;8.90;99.90;;;;;;4971083;28;19936;-72
2024/01/22 10:36:44;;;;;;;;;;;9.00;99.90;;;;;;4941187;28;19964;-72
2024/01/22 10:39:09;;;;;;;;;;;9.10;99.90;;;;;;4970279;28;19944;-73
2024/01/22 10:41:40;;;;;;;;;;;9.10;99.90;;;;;;4958546;28;19925;-71
2024/01/22 10:44:06;;;;;;;;;;;9.20;99.90;;;;;;4969121;28;20845;-72
2024/01/22 10:46:32;;;;;;;;;;;9.30;99.90;;;;;;4937294;28;20447;-71
2024/01/22 10:48:59;;;;;;;;;;;9.40;99.90;;;;;;4960122;28;20431;-71
2024/01/22 10:51:25;;;;;;;;;;;9.40;99.90;;;;;;4929418;28;19932;-72
2024/01/22 10:53:52;;;;;;;;;;;9.40;99.90;;;;;;4967134;28;19925;-72
2024/01/22 10:56:22;;;;;;;;;;;9.40;99.90;;;;;;4957096;28;19925;-72
2024/01/22 10:58:50;;;;;;;;;;;9.40;99.90;;;;;;4972051;28;19933;-71
2024/01/22 11:01:16;;;;;;;;;;;9.40;99.90;;;;;;4953142;28;19951;-72
2024/01/22 11:03:52;;;;;;;;;;;9.50;99.90;;;;;;4976518;28;19930;-72
2024/01/22 11:06:29;;;;;;;;;;;9.50;99.90;;;;;;4940534;28;19932;-71
2024/01/22 11:09:01;;;;;;;;;;;9.50;99.90;;;;;;4971937;28;19933;-71
2024/01/22 11:11:27;;;;;;;;;;;9.50;99.90;;;;;;4957695;28;19917;-71
2024/01/22 11:13:59;;;;;;;;;;;9.50;99.90;;;;;;4973200;28;20425;-71
2024/01/22 11:16:25;;;;;;;;;;;9.50;99.90;;;;;;4947387;28;20712;-71
2024/01/22 11:18:58;;;;;;;;;;;9.50;99.90;;;;;;4970031;28;20040;-72
2024/01/22 11:21:24;;;;;;;;;;;9.50;99.90;;;;;;4951786;28;19925;-72
2024/01/22 11:24:06;;;;;;;;;;;9.50;99.90;;;;;;4965995;28;19925;-71
2024/01/22 11:26:32;;;;;;;;;;;9.50;99.90;;;;;;4930366;28;19929;-71
2024/01/22 11:29:08;;;;;;;;;;;9.60;99.90;;;;;;4964465;28;20521;-71
2024/01/22 11:31:35;;;;;;;;;;;9.60;99.90;;;;;;4948477;28;20133;-73
2024/01/22 11:34:02;;;;;;;;;;;9.70;99.90;;;;;;4971644;28;20983;-72
2024/01/22 11:36:49;;;;;;;;;;;9.70;99.90;;;;;;4950494;28;19925;-72
2024/01/22 11:39:39;;;;;;;;;;;9.70;99.90;;;;;;4969359;28;19937;-73
2024/01/22 11:42:07;;;;;;;;;;;9.80;99.90;;;;;;4945808;28;20293;-71
2024/01/22 11:44:46;;;;;;;;;;;9.80;99.90;;;;;;4964655;28;20505;-70
2024/01/22 11:47:12;;;;;;;;;;;9.80;99.90;;;;;;4941884;28;19925;-71
2024/01/22 11:49:38;;;;;;;;;;;9.80;99.90;;;;;;4965244;28;21115;-70
2024/01/22 11:52:11;;;;;;;;;;;9.80;99.90;;;;;;4923933;28;20124;-71
2024/01/22 11:54:37;;;;;;;;;;;9.90;99.90;;;;;;4965759;28;20019;-72
2024/01/22 11:57:03;;;;;;;;;;;9.90;99.90;;;;;;4940664;28;19929;-72
2024/01/22 11:59:29;;;;;;;;;;;9.90;99.90;;;;;;4961587;28;20747;-71
2024/01/22 12:02:24;;;;;;;;;;;10.00;99.90;;;;;;4940919;28;21029;-72
2024/01/22 12:05:03;;;;;;;;;;;10.00;99.90;;;;;;4956686;28;20482;-71
2024/01/22 12:07:30;;;;;;;;;;;10.00;99.90;;;;;;4912298;28;19999;-69
2024/01/22 12:09:56;;;;;;;;;;;9.90;99.90;;;;;;4957849;28;19932;-71
2024/01/22 12:12:22;;;;;;;;;;;9.90;99.90;;;;;;4963252;28;19925;-71
2024/01/22 12:14:55;;;;;;;;;;;10.00;99.90;;;;;;4963558;28;20701;-71
2024/01/22 12:17:21;;;;;;;;;;;10.00;99.90;;;;;;4924025;28;20414;-70
2024/01/22 12:19:53;;;;;;;;;;;10.00;99.90;;;;;;4965750;28;20039;-71
2024/01/22 12:22:22;;;;;;;;;;;10.00;99.90;;;;;;4942147;28;19939;-71
2024/01/22 12:25:09;;;;;;;;;;;10.00;99.90;;;;;;4964669;28;20994;-70
2024/01/22 12:27:36;;;;;;;;;;;10.10;99.90;;;;;;4915088;28;19940;-70
2024/01/22 12:30:06;;;;;;;;;;;11.30;99.90;;;;;;4935500;28;19925;-70
2024/01/22 12:32:33;;;;;;;;;;;12.00;99.90;;;;;;4983807;28;19929;-70
2024/01/22 12:34:59;;;;;;;;;;;12.10;99.90;;;;;;4948687;28;19932;-70
2024/01/22 12:37:29;;;;;;;;;;;12.50;99.90;;;;;;4971327;28;21108;-69
2024/01/22 12:40:05;;;;;;;;;;;12.90;99.90;;;;;;4963739;28;19937;-69
2024/01/22 12:42:31;;;;;;;;;;;12.80;99.90;;;;;;4940076;28;19936;-70
2024/01/22 12:45:00;;;;;;;;;;;13.10;99.90;;;;;;4936159;28;20500;-70
2024/01/22 12:47:27;;;;;;;;;;;13.00;99.90;;;;;;4955884;28;19985;-71
2024/01/22 12:49:57;;;;;;;;;;;13.10;99.90;;;;;;4964811;28;19941;-70
2024/01/22 12:52:23;;;;;;;;;;;13.10;99.90;;;;;;4931442;28;19925;-71
2024/01/22 12:54:49;;;;;;;;;;;13.10;99.90;;;;;;4965222;28;19979;-70
2024/01/22 12:57:18;;;;;;;;;;;12.90;99.90;;;;;;4934399;28;19932;-71
2024/01/22 12:59:45;;;;;;;;;;;12.90;99.90;;;;;;4974672;28;20728;-70
2024/01/22 13:02:11;;;;;;;;;;;13.20;99.90;;;;;;4937806;28;19952;-71
2024/01/22 13:04:37;;;;;;;;;;;13.00;99.90;;;;;;4960807;28;19932;-70
2024/01/22 13:07:03;;;;;;;;;;;13.30;99.90;;;;;;4943269;28;20454;-70
2024/01/22 13:09:29;;;;;;;;;;;13.40;99.90;;;;;;4965415;28;20061;-70
2024/01/22 13:11:55;;;;;;;;;;;13.40;99.90;;;;;;4946300;28;20415;-70
2024/01/22 13:14:21;;;;;;;;;;;13.40;99.90;;;;;;4965516;28;19932;-70
2024/01/22 13:16:47;;;;;;;;;;;13.30;99.90;;;;;;4942537;28;19934;-69
2024/01/22 13:19:13;;;;;;;;;;;13.20;99.90;;;;;;4966222;28;20233;-70
2024/01/22 13:21:39;;;;;;;;;;;13.30;99.90;;;;;;4944129;28;20793;-69
2024/01/22 13:24:07;;;;;;;;;;;12.90;99.90;;;;;;4948805;28;19932;-70
2024/01/22 13:26:33;;;;;;;;;;;13.00;99.90;;;;;;4931695;28;19931;-71
2024/01/22 13:28:59;;;;;;;;;;;12.70;99.90;;;;;;4969421;28;20675;-71
2024/01/22 13:31:25;;;;;;;;;;;12.30;99.90;;;;;;4956594;28;20441;-72
2024/01/22 13:33:51;;;;;;;;;;;11.80;99.90;;;;;;4985531;28;19932;-71
2024/01/22 13:36:17;;;;;;;;;;;11.20;99.90;;;;;;4951477;28;20494;-70
2024/01/22 13:38:43;;;;;;;;;;;11.60;99.90;;;;;;4972729;28;19925;-70
2024/01/22 13:41:09;;;;;;;;;;;11.90;99.90;;;;;;4950874;28;20319;-71
2024/01/22 13:43:35;;;;;;;;;;;12.50;99.90;;;;;;4952475;28;19960;-71
2024/01/22 13:46:01;;;;;;;;;;;12.50;99.90;;;;;;4946036;28;19929;-70
2024/01/22 13:48:27;;;;;;;;;;;12.60;99.90;;;;;;4969098;28;19925;-70
2024/01/22 13:50:53;;;;;;;;;;;12.60;99.90;;;;;;4934675;28;19925;-69
2024/01/22 13:53:19;;;;;;;;;;;12.70;99.90;;;;;;4955390;28;21867;-70
2024/01/22 13:55:45;;;;;;;;;;;12.90;99.90;;;;;;4944066;28;20486;-70
2024/01/22 13:58:11;;;;;;;;;;;12.70;99.90;;;;;;4981117;28;19930;-70
2024/01/22 14:00:37;;;;;;;;;;;12.50;99.90;;;;;;4942671;28;19933;-69
2024/01/22 14:03:06;;;;;;;;;;;11.90;99.90;;;;;;4952623;28;19926;-68
2024/01/22 14:05:32;;;;;;;;;;;12.00;99.90;;;;;;4935570;28;20864;-68
2024/01/22 14:07:58;;;;;;;;;;;11.50;99.90;;;;;;4969123;28;20000;-68
2024/01/22 14:10:24;;;;;;;;;;;11.20;99.90;;;;;;4934717;28;20481;-69
2024/01/22 14:12:50;;;;;;;;;;;10.90;99.90;;;;;;4966628;28;20579;-69
2024/01/22 14:15:16;;;;;;;;;;;10.90;99.90;;;;;;4939204;28;19927;-68
2024/01/22 14:17:42;;;;;;;;;;;10.80;99.90;;;;;;4953116;28;19925;-68
2024/01/22 14:20:08;;;;;;;;;;;10.90;99.90;;;;;;4933774;28;20492;-68
2024/01/22 14:22:36;;;;;;;;;;;10.80;99.90;;;;;;4985589;28;20297;-69
2024/01/22 14:25:07;;;;;;;;;;;10.50;99.90;;;;;;4950617;28;19925;-69